Time;durP1;ratioP1;P1;durP2;ratioP2;P2;SDS_P1;SDS_P2;PMS_P1;PMS_P2;Temp;Humidity;BMP_temperature;BMP_pressure;BME280_temperature;BME280_humidity;BME280_pressure;Samples;Min_cycle;Max_cycle;Signal;HPM_P1;HPM_P2
2023/10/28 00:02:33;;;;;;;0.20;0.10;;;12.70;99.90;;;10.99;100.00;98716.75;10334820;28;97709;-81
2023/10/28 00:07:37;;;;;;;2.23;0.50;;;12.70;99.90;;;11.03;100.00;98725.09;10322986;28;97217;-81
2023/10/28 00:12:41;;;;;;;1.47;0.33;;;12.70;99.90;;;11.03;100.00;98733.06;10327976;28;96719;-82
2023/10/28 00:17:50;;;;;;;1.43;0.43;;;12.60;99.90;;;11.05;100.00;98741.69;10325070;28;98585;-81
2023/10/28 00:22:54;;;;;;;0.40;0.30;;;12.70;99.90;;;11.07;100.00;98745.75;10328025;28;96554;-82
2023/10/28 00:27:58;;;;;;;1.87;0.30;;;12.70;99.90;;;11.06;100.00;98760.06;10337120;28;96825;-82
2023/10/28 00:33:03;;;;;;;0.50;0.20;;;12.70;99.90;;;11.00;100.00;98750.25;10328896;28;98501;-81
2023/10/28 00:38:07;;;;;;;0.63;0.30;;;12.70;99.90;;;11.05;100.00;98750.47;10309388;28;96577;-81
2023/10/28 00:43:11;;;;;;;0.10;0.10;;;12.70;99.90;;;11.05;100.00;98754.97;10328969;28;96636;-81
2023/10/28 00:48:15;;;;;;;0.33;0.17;;;12.70;99.90;;;11.08;100.00;98742.06;10335333;28;98852;-81
2023/10/28 00:53:20;;;;;;;1.80;0.20;;;12.70;99.90;;;11.09;98.63;98745.53;10306479;28;96589;-81
2023/10/28 00:58:24;;;;;;;0.10;0.10;;;12.70;99.90;;;11.09;97.71;98753.50;10330649;28;98634;-81
2023/10/28 01:03:30;;;;;;;0.30;0.20;;;12.70;99.90;;;11.04;98.28;98767.44;10301874;28;96794;-82
2023/10/28 01:08:35;;;;;;;0.53;0.20;;;12.70;99.90;;;11.03;99.73;98784.38;10294612;28;96520;-81
2023/10/28 01:13:38;;;;;;;0.50;0.20;;;12.70;99.90;;;10.99;100.00;98784.00;10351126;28;96631;-81
2023/10/28 01:18:51;;;;;;;0.70;0.20;;;12.60;99.90;;;10.92;100.00;98788.50;10304025;28;97595;-81
2023/10/28 01:23:56;;;;;;;1.90;0.40;;;12.60;99.90;;;10.87;100.00;98785.63;10292506;28;96601;-82
2023/10/28 01:29:00;;;;;;;0.10;0.10;;;12.50;99.90;;;10.82;100.00;98781.94;10311548;28;97258;-81
2023/10/28 01:34:04;;;;;;;0.10;0.10;;;12.50;99.90;;;10.72;100.00;98788.47;10328066;28;98020;-81
2023/10/28 01:39:08;;;;;;;0.10;0.10;;;12.40;99.90;;;10.66;100.00;98791.94;10305684;28;97941;-81
2023/10/28 01:44:12;;;;;;;0.10;0.10;;;12.30;99.90;;;10.59;100.00;98804.41;10336354;28;96557;-81
2023/10/28 01:49:15;;;;;;;0.30;0.10;;;12.30;99.90;;;10.56;100.00;98796.84;10321632;28;96706;-81
2023/10/28 01:54:19;;;;;;;1.93;0.27;;;12.20;99.90;;;10.57;100.00;98800.31;10334923;28;97135;-81
2023/10/28 01:59:24;;;;;;;0.47;0.10;;;12.20;99.90;;;10.55;100.00;98802.34;10338410;28;96676;-82
2023/10/28 02:04:28;;;;;;;1.00;0.20;;;12.20;99.90;;;10.51;100.00;98811.75;10315540;28;96543;-82
2023/10/28 02:09:34;;;;;;;0.73;0.23;;;12.20;99.90;;;10.42;100.00;98819.06;10316511;28;96768;-81
2023/10/28 02:14:40;;;;;;;2.00;0.27;;;12.10;99.90;;;10.32;100.00;98818.66;10302266;28;96589;-81
2023/10/28 02:19:44;;;;;;;0.93;0.27;;;12.00;99.90;;;10.22;100.00;98815.50;10284346;28;96684;-82
2023/10/28 02:24:48;;;;;;;0.67;0.20;;;11.90;99.90;;;10.09;100.00;98826.91;10308330;28;96691;-82
2023/10/28 02:29:52;;;;;;;0.53;0.20;;;11.80;99.90;;;9.97;100.00;98825.84;10301946;28;98453;-81
2023/10/28 02:34:55;;;;;;;0.57;0.23;;;11.60;99.90;;;9.82;100.00;98834.72;10317484;28;96733;-81
2023/10/28 02:39:59;;;;;;;1.23;0.10;;;11.50;99.90;;;9.70;100.00;98830.16;10319468;28;96654;-81
2023/10/28 02:45:04;;;;;;;6.53;0.63;;;11.30;99.90;;;9.57;100.00;98830.91;10301144;28;98129;-81
2023/10/28 02:50:09;;;;;;;2.00;0.33;;;11.30;99.90;;;9.49;100.00;98823.94;10311727;28;97243;-81
2023/10/28 02:55:13;;;;;;;1.50;0.60;;;11.20;99.90;;;9.39;100.00;98823.44;10321950;28;96955;-81
2023/10/28 03:00:17;;;;;;;1.60;0.60;;;11.10;99.90;;;9.30;100.00;98833.41;10320679;28;96701;-81
2023/10/28 03:05:23;;;;;;;1.80;0.60;;;11.00;99.90;;;9.25;100.00;98825.19;10318436;28;96974;-81
2023/10/28 03:10:27;;;;;;;0.90;0.40;;;10.90;99.90;;;9.27;100.00;98833.75;10332794;28;96935;-81
2023/10/28 03:15:32;;;;;;;4.57;0.80;;;11.00;99.90;;;9.30;100.00;98844.00;10330314;28;96569;-81
2023/10/28 03:20:35;;;;;;;1.33;0.43;;;11.00;99.90;;;9.38;100.00;98849.16;10295983;28;96472;-81
2023/10/28 03:25:39;;;;;;;1.00;0.30;;;11.10;99.90;;;9.50;100.00;98854.75;10333969;28;96668;-81
2023/10/28 03:30:43;;;;;;;3.17;0.77;;;11.20;99.90;;;9.56;100.00;98853.16;10316137;28;97192;-81
2023/10/28 03:35:46;;;;;;;6.57;1.20;;;11.30;99.90;;;9.58;100.00;98851.94;10312983;28;97451;-81
2023/10/28 03:40:50;;;;;;;3.17;0.50;;;11.30;99.90;;;9.60;100.00;98867.66;10360867;28;96594;-81
2023/10/28 03:45:54;;;;;;;2.73;0.90;;;11.30;99.90;;;9.56;100.00;98866.41;10345906;28;96941;-81
2023/10/28 03:51:00;;;;;;;6.10;1.23;;;11.30;99.90;;;9.51;100.00;98872.28;10314887;28;98868;-81
2023/10/28 03:56:05;;;;;;;4.37;1.03;;;11.20;99.90;;;9.48;100.00;98867.38;10301682;28;96811;-81
2023/10/28 04:01:10;;;;;;;2.70;1.10;;;11.20;99.90;;;9.43;100.00;98871.63;10298842;28;96495;-81
2023/10/28 04:06:13;;;;;;;2.80;0.83;;;11.10;99.90;;;9.33;100.00;98864.81;10348867;28;96538;-81
2023/10/28 04:11:17;;;;;;;2.27;0.70;;;11.00;99.90;;;9.22;100.00;98861.84;10324684;28;96683;-81
2023/10/28 04:16:21;;;;;;;1.80;0.60;;;10.90;99.90;;;9.09;100.00;98866.03;10292172;28;96631;-81
2023/10/28 04:21:24;;;;;;;2.53;0.90;;;10.70;99.90;;;8.98;100.00;98874.50;10276138;28;96493;-81
2023/10/28 04:26:28;;;;;;;0.97;0.40;;;10.60;99.90;;;8.97;100.00;98858.78;10297703;28;96512;-81
2023/10/28 04:31:32;;;;;;;0.50;0.30;;;10.60;99.90;;;9.00;100.00;98884.94;10294700;28;97657;-81
2023/10/28 04:36:35;;;;;;;0.40;0.20;;;10.70;99.90;;;9.04;100.00;98876.38;10310040;28;96883;-81
2023/10/28 04:41:39;;;;;;;2.37;0.43;;;10.70;99.90;;;9.08;100.00;98890.09;10282206;28;97558;-82
2023/10/28 04:46:42;;;;;;;4.33;0.57;;;10.70;99.90;;;8.99;100.00;98907.94;10323215;28;97175;-81
2023/10/28 04:51:46;;;;;;;1.60;0.70;;;10.70;99.90;;;8.82;100.00;98907.38;10311317;28;97353;-81
2023/10/28 04:56:50;;;;;;;1.33;0.60;;;10.60;99.90;;;8.68;100.00;98902.94;10340479;28;96858;-82
2023/10/28 05:01:53;;;;;;;1.50;0.63;;;10.40;99.90;;;8.52;100.00;98905.81;10330714;28;98225;-82
2023/10/28 05:06:57;;;;;;;0.70;0.30;;;10.30;99.90;;;8.41;100.00;98915.06;10310082;28;96624;-82
2023/10/28 05:12:01;;;;;;;3.93;0.70;;;10.10;99.90;;;8.35;100.00;98912.28;10333798;28;96569;-82
2023/10/28 05:17:05;;;;;;;0.47;0.30;;;10.00;99.90;;;8.35;100.00;98923.69;10316948;28;97039;-82
2023/10/28 05:22:10;;;;;;;1.40;0.77;;;10.00;99.90;;;8.41;100.00;98927.47;10328081;28;96594;-82
2023/10/28 05:27:14;;;;;;;1.03;0.60;;;10.10;99.90;;;8.45;100.00;98942.78;10324794;28;96730;-82
2023/10/28 05:32:19;;;;;;;1.73;0.73;;;10.10;99.90;;;8.49;100.00;98951.19;10333173;28;97648;-82
2023/10/28 05:37:23;;;;;;;3.87;0.73;;;10.20;99.90;;;8.48;100.00;98962.78;10320644;28;96751;-82
2023/10/28 05:42:26;;;;;;;2.50;0.93;;;10.20;99.90;;;8.39;100.00;98974.47;10318040;28;98616;-81
2023/10/28 05:47:30;;;;;;;2.50;1.00;;;10.10;99.90;;;8.34;100.00;98985.59;10345671;28;96752;-80
2023/10/28 05:52:38;;;;;;;4.47;1.20;;;10.00;99.90;;;8.30;100.00;98982.47;10336105;28;96551;-80
2023/10/28 05:57:43;;;;;;;4.30;1.23;;;10.00;99.90;;;8.28;100.00;98979.19;10320887;28;98376;-80
2023/10/28 06:02:47;;;;;;;2.70;1.30;;;10.00;99.90;;;8.32;100.00;98979.63;10304870;28;99046;-81
2023/10/28 06:07:51;;;;;;;4.37;1.10;;;10.10;99.90;;;8.39;100.00;98995.63;10321937;28;98180;-80
2023/10/28 06:12:55;;;;;;;3.03;1.03;;;10.10;99.90;;;8.49;100.00;99006.78;10355544;28;97535;-81
2023/10/28 06:17:58;;;;;;;2.07;1.20;;;10.20;99.90;;;8.60;100.00;99024.84;10328015;28;96614;-81
2023/10/28 06:23:06;;;;;;;5.60;2.00;;;10.40;99.90;;;8.73;100.00;99037.44;10312990;28;97765;-82
2023/10/28 06:28:10;;;;;;;3.73;2.10;;;10.50;99.90;;;8.89;100.00;99045.19;10325380;28;96925;-82
2023/10/28 06:33:16;;;;;;;3.33;1.93;;;10.60;99.90;;;9.08;100.00;99041.13;10312660;28;98613;-82
2023/10/28 06:38:20;;;;;;;3.97;2.00;;;10.80;99.90;;;9.27;100.00;99045.84;10309618;28;96714;-82
2023/10/28 06:43:25;;;;;;;3.13;1.70;;;10.90;99.90;;;9.47;100.00;99051.34;10322618;28;97650;-82
2023/10/28 06:48:28;;;;;;;2.63;1.40;;;11.20;99.90;;;9.71;100.00;99057.28;10326216;28;96632;-82
2023/10/28 06:53:32;;;;;;;5.00;1.17;;;11.40;99.90;;;9.92;100.00;99066.06;10343474;28;97984;-81
2023/10/28 06:58:36;;;;;;;1.43;0.73;;;11.60;99.90;;;10.12;100.00;99070.69;10301530;28;97093;-82
2023/10/28 07:03:40;;;;;;;3.87;1.30;;;11.90;99.90;;;10.39;100.00;99075.25;10313965;28;96859;-82
2023/10/28 07:08:45;;;;;;;3.83;1.90;;;12.10;99.90;;;11.10;100.00;99082.19;10330123;28;96632;-82
2023/10/28 07:13:49;;;;;;;2.70;1.52;;;12.70;99.90;;;11.99;100.00;99093.44;10330055;28;96619;-83
2023/10/28 07:18:53;;;;;;;7.10;2.30;;;13.40;99.90;;;12.82;100.00;99111.63;10336552;28;98382;-82
2023/10/28 07:23:57;;;;;;;3.17;1.90;;;14.10;99.90;;;13.51;100.00;99116.34;10309632;28;98393;-82
2023/10/28 07:29:01;;;;;;;3.70;2.03;;;14.60;99.90;;;13.88;100.00;99113.88;10339418;28;96818;-82
2023/10/28 07:34:07;;;;;;;6.10;2.25;;;15.00;99.90;;;14.07;100.00;99109.41;10333046;28;96557;-82
2023/10/28 07:39:11;;;;;;;7.45;2.50;;;15.20;99.90;;;14.17;100.00;99118.59;10317578;28;96846;-82
2023/10/28 07:44:15;;;;;;;4.97;3.10;;;15.30;99.90;;;14.11;100.00;99119.47;10295196;28;98389;-82
2023/10/28 07:49:18;;;;;;;4.32;2.53;;;15.40;99.90;;;14.05;100.00;99133.69;10294333;28;96667;-82
2023/10/28 07:54:23;;;;;;;3.55;2.10;;;15.50;99.90;;;13.99;100.00;99133.75;10329382;28;97978;-82
2023/10/28 07:59:27;;;;;;;5.72;2.40;;;15.50;99.90;;;13.95;100.00;99135.19;10288580;28;99206;-81
2023/10/28 08:04:32;;;;;;;4.45;2.35;;;15.50;99.90;;;14.00;100.00;99138.03;10326901;28;98550;-82
2023/10/28 08:09:36;;;;;;;4.68;2.58;;;15.60;99.90;;;14.10;100.00;99133.03;10309125;28;97490;-82
2023/10/28 08:14:39;;;;;;;5.03;1.65;;;15.70;99.90;;;14.25;100.00;99132.72;10313506;28;97118;-82
2023/10/28 08:19:43;;;;;;;3.05;1.20;;;15.90;99.90;;;14.35;100.00;99135.72;10318594;28;97416;-82
2023/10/28 08:24:48;;;;;;;3.00;1.42;;;16.00;99.90;;;14.42;100.00;99141.84;10301842;28;96644;-82
2023/10/28 08:29:52;;;;;;;3.75;1.08;;;16.10;99.90;;;14.35;100.00;99147.25;10351277;28;96744;-82
2023/10/28 08:34:56;;;;;;;3.92;2.28;;;16.00;99.90;;;14.24;100.00;99155.94;10287186;28;98192;-82
2023/10/28 08:40:00;;;;;;;3.83;2.15;;;16.00;99.90;;;14.03;100.00;99165.13;10327635;28;96838;-82
2023/10/28 08:45:05;;;;;;;8.30;2.53;;;15.80;99.90;;;13.90;100.00;99181.22;10322164;28;97708;-82
2023/10/28 08:50:12;;;;;;;5.10;3.10;;;15.60;99.90;;;13.82;100.00;99186.84;10326036;28;98250;-81
2023/10/28 08:55:15;;;;;;;4.53;2.45;;;15.50;99.90;;;13.75;100.00;99205.56;10319240;28;98311;-81
2023/10/28 09:00:22;;;;;;;4.20;2.25;;;15.50;99.90;;;13.74;100.00;99205.78;10302491;28;97037;-81
2023/10/28 09:05:26;;;;;;;5.70;2.25;;;15.50;99.90;;;13.74;100.00;99208.44;10311783;28;97318;-81
2023/10/28 09:10:30;;;;;;;5.05;2.80;;;15.50;99.90;;;13.75;100.00;99210.09;10296390;28;96698;-82
2023/10/28 09:15:37;;;;;;;5.20;2.40;;;15.50;99.90;;;13.77;100.00;99221.34;10318512;28;99071;-82
2023/10/28 09:20:42;;;;;;;3.28;2.05;;;15.50;99.90;;;13.88;100.00;99220.69;10327677;28;96609;-83
2023/10/28 09:25:46;;;;;;;4.03;1.85;;;15.60;99.90;;;14.16;100.00;99217.69;10328918;28;98738;-83
2023/10/28 09:30:50;;;;;;;6.20;1.92;;;15.80;99.90;;;14.52;100.00;99206.34;10351249;28;98974;-83
2023/10/28 09:35:54;;;;;;;2.28;1.13;;;16.20;99.90;;;14.93;100.00;99210.31;10336988;28;96700;-83
2023/10/28 09:41:01;;;;;;;2.22;0.90;;;16.60;99.90;;;15.13;100.00;99202.13;10321121;28;97619;-83
2023/10/28 09:46:06;;;;;;;0.70;0.22;;;16.80;99.90;;;15.26;97.54;99208.13;10309175;28;98993;-82
2023/10/28 09:51:10;;;;;;;1.45;0.30;;;16.90;99.90;;;15.35;92.72;99199.78;10289973;28;96862;-83
2023/10/28 09:56:15;;;;;;;0.45;0.10;;;17.10;99.90;;;15.45;91.59;99198.25;10303509;28;96635;-84
2023/10/28 10:01:48;;;;;;;0.55;0.30;;;17.20;99.90;;;15.65;91.59;99189.19;10336030;28;96564;-81
2023/10/28 10:06:52;;;;;;;0.75;0.28;;;17.40;99.90;;;15.78;87.64;99181.81;10327719;28;97204;-82
2023/10/28 10:11:57;;;;;;;0.50;0.20;;;17.60;99.90;;;15.90;82.68;99176.50;10319647;28;98178;-82
2023/10/28 10:17:38;;;;;;;0.50;0.10;;;17.70;99.90;;;16.35;85.86;99177.91;10305152;28;96708;-83
2023/10/28 10:22:42;;;;;;;1.47;1.10;;;18.00;99.90;;;16.81;85.40;99175.31;10346426;28;96731;-83
2023/10/28 10:27:46;;;;;;;3.08;1.58;;;18.40;99.90;;;17.12;84.00;99173.31;10309301;28;98797;-83
2023/10/28 10:32:50;;;;;;;4.05;2.20;;;18.70;99.90;;;17.23;85.32;99177.84;10319628;28;97505;-83
2023/10/28 10:38:29;;;;;;;1.05;0.50;;;18.90;99.90;;;17.09;80.73;99163.03;10334325;28;96596;-82
2023/10/28 10:43:32;;;;;;;3.90;2.20;;;18.80;99.80;;;16.98;80.50;99166.56;10343375;28;96586;-83
2023/10/28 10:48:36;;;;;;;5.28;2.15;;;18.70;99.90;;;16.73;81.28;99173.00;10329706;28;96640;-82
2023/10/28 10:53:42;;;;;;;6.72;2.83;;;18.60;99.90;;;16.43;83.95;99177.56;10325422;28;96973;-83
2023/10/28 10:58:46;;;;;;;6.30;3.17;;;18.30;99.90;;;16.18;87.11;99183.09;10312027;28;96749;-84
2023/10/28 11:03:50;;;;;;;3.83;2.47;;;18.00;99.90;;;15.90;88.97;99184.53;10334176;28;96695;-83
2023/10/28 11:08:54;;;;;;;7.13;3.28;;;17.70;99.90;;;15.70;91.60;99197.34;10333754;28;97496;-83
2023/10/28 11:13:57;;;;;;;5.43;2.67;;;17.50;99.90;;;15.51;93.53;99192.00;10330463;28;97019;-83
2023/10/28 11:19:05;;;;;;;6.45;2.40;;;17.30;99.90;;;15.42;98.10;99197.88;10323459;28;96814;-83
2023/10/28 11:24:11;;;;;;;5.60;3.03;;;17.20;99.90;;;15.31;95.91;99202.13;10301436;28;96644;-83
2023/10/28 11:29:18;;;;;;;6.18;2.70;;;17.00;99.90;;;15.24;97.49;99204.06;10345358;28;97302;-83
2023/10/28 11:34:24;;;;;;;2.85;1.70;;;17.00;99.90;;;15.18;98.88;99196.91;10321114;28;97463;-83
2023/10/28 11:39:32;;;;;;;3.80;1.77;;;16.90;99.90;;;15.14;100.00;99201.88;10321315;28;97609;-83
2023/10/28 11:44:36;;;;;;;3.75;1.75;;;16.80;99.90;;;15.15;100.00;99197.34;10310515;28;96605;-83
2023/10/28 11:49:43;;;;;;;2.67;1.40;;;16.80;99.90;;;15.19;100.00;99191.34;10312628;28;97339;-83
2023/10/28 11:54:47;;;;;;;7.35;2.25;;;16.90;99.90;;;15.33;100.00;99185.81;10324188;28;96721;-83
2023/10/28 11:59:52;;;;;;;2.35;1.15;;;17.00;99.90;;;15.49;100.00;99179.88;10313962;28;97772;-82
2023/10/28 12:04:56;;;;;;;2.35;1.33;;;17.20;99.90;;;15.54;97.27;99182.72;10321419;28;97123;-83
2023/10/28 12:10:03;;;;;;;2.20;1.00;;;17.30;99.90;;;15.55;97.17;99186.19;10342948;28;97328;-83
2023/10/28 12:15:07;;;;;;;2.88;1.20;;;17.30;99.90;;;15.51;95.39;99193.84;10317026;28;97370;-83
2023/10/28 12:20:14;;;;;;;2.30;1.08;;;17.20;99.90;;;15.49;95.28;99201.31;10309012;28;96698;-83
2023/10/28 12:25:18;;;;;;;2.30;1.00;;;17.20;99.90;;;15.50;93.88;99200.25;10344027;28;98042;-83
2023/10/28 12:30:22;;;;;;;4.15;2.15;;;17.20;99.90;;;15.46;91.98;99212.44;10320166;28;96620;-82
2023/10/28 12:35:25;;;;;;;2.50;0.60;;;17.20;99.90;;;15.40;79.86;99207.97;10305876;28;97841;-82
2023/10/28 12:40:30;;;;;;;2.17;0.90;;;17.10;99.90;;;15.40;74.21;99222.19;10325425;28;98342;-82
2023/10/28 12:45:37;;;;;;;7.50;2.55;;;17.10;98.00;;;15.26;73.61;99228.72;10328886;28;96644;-82
2023/10/28 12:50:41;;;;;;;1.15;0.50;;;17.00;97.40;;;15.10;73.60;99237.31;10314272;28;96602;-82
2023/10/28 12:55:45;;;;;;;0.75;0.50;;;16.80;96.80;;;14.92;75.00;99236.25;10333478;28;98008;-82
2023/10/28 13:00:49;;;;;;;59.33;21.33;;;16.70;96.80;;;14.80;76.35;99239.84;10292178;28;97381;-83
2023/10/28 13:05:56;;;;;;;15.40;4.45;;;16.50;97.40;;;14.75;78.26;99243.19;10313407;28;96533;-83
2023/10/28 13:11:00;;;;;;;2.95;0.88;;;16.50;97.80;;;14.67;78.34;99244.28;10315973;28;96654;-82
2023/10/28 13:16:04;;;;;;;1.52;0.47;;;16.40;97.70;;;14.59;78.68;99255.25;10324751;28;96751;-82
2023/10/28 13:21:08;;;;;;;1.02;0.40;;;16.30;97.70;;;14.54;78.02;99262.28;10295662;28;97462;-82
2023/10/28 13:26:14;;;;;;;2.35;0.30;;;16.20;97.50;;;14.47;78.17;99256.97;10309684;28;97047;-82
2023/10/28 13:31:18;;;;;;;0.68;0.25;;;16.20;97.70;;;14.41;78.40;99265.81;10349543;28;98515;-81
2023/10/28 13:36:23;;;;;;;19.75;6.95;;;16.20;97.60;;;14.38;79.22;99260.91;10349775;28;96490;-82
2023/10/28 13:41:27;;;;;;;3.20;1.23;;;16.10;98.00;;;14.38;79.68;99259.03;10326871;28;97443;-81
2023/10/28 13:46:31;;;;;;;7.25;3.28;;;16.10;97.80;;;14.38;78.06;99256.38;10308897;28;99000;-81
2023/10/28 13:51:35;;;;;;;3.38;1.65;;;16.20;97.70;;;14.37;76.72;99249.38;10326578;28;96784;-81
2023/10/28 13:56:39;;;;;;;19.15;10.45;;;16.10;96.90;;;14.32;74.98;99259.91;10280462;28;96612;-81
2023/10/28 14:01:42;;;;;;;11.32;3.42;;;16.10;96.30;;;14.26;75.26;99255.41;10332939;28;96608;-80
2023/10/28 14:06:46;;;;;;;5.88;3.92;;;16.00;96.60;;;14.18;73.07;99264.50;10318076;28;96839;-81
2023/10/28 14:11:50;;;;;;;7.70;4.35;;;16.00;96.00;;;14.10;74.88;99267.44;10352454;28;97231;-81
2023/10/28 14:16:54;;;;;;;10.00;3.60;;;15.90;96.20;;;14.01;76.83;99259.88;10321951;28;98572;-81
2023/10/28 14:22:00;;;;;;;40.15;18.00;;;15.80;96.40;;;13.91;76.44;99263.84;10347776;28;97069;-81
2023/10/28 14:27:04;;;;;;;16.48;9.13;;;15.70;96.50;;;13.83;78.56;99279.25;10319760;28;96753;-81
2023/10/28 14:32:12;;;;;;;9.98;6.20;;;15.60;96.80;;;13.74;79.54;99285.88;10348087;28;98330;-81
2023/10/28 14:37:16;;;;;;;3.80;2.05;;;15.50;96.90;;;13.64;78.45;99289.78;10311977;28;96555;-82
2023/10/28 14:42:21;;;;;;;2.13;0.80;;;15.40;97.00;;;13.57;79.18;99304.19;10296999;28;96507;-82
2023/10/28 14:47:25;;;;;;;1.60;0.73;;;15.30;97.20;;;13.49;78.02;99291.06;10312007;28;96530;-82
2023/10/28 14:52:29;;;;;;;4.20;1.40;;;15.30;97.10;;;13.36;80.09;99289.22;10311709;28;96551;-82
2023/10/28 14:57:33;;;;;;;7.53;2.38;;;15.10;97.20;;;13.21;79.88;99294.81;10294602;28;96684;-82
2023/10/28 15:02:37;;;;;;;3.08;1.40;;;15.00;97.20;;;13.03;81.00;99298.06;10294190;28;96593;-82
2023/10/28 15:07:41;;;;;;;2.37;1.10;;;14.80;97.20;;;12.93;81.00;99300.31;10295090;28;96539;-82
2023/10/28 15:12:45;;;;;;;2.92;1.20;;;14.70;97.30;;;12.84;81.73;99299.72;10293392;28;96686;-82
2023/10/28 15:17:52;;;;;;;2.33;1.20;;;14.60;97.40;;;12.77;82.26;99298.03;10315400;28;96503;-82
2023/10/28 15:22:56;;;;;;;5.72;2.60;;;14.50;97.60;;;12.70;83.30;99300.69;10351264;28;96563;-82
2023/10/28 15:27:59;;;;;;;7.40;2.80;;;14.40;97.80;;;12.64;85.12;99296.19;10312364;28;96663;-82
2023/10/28 15:33:03;;;;;;;12.32;5.22;;;14.40;98.00;;;12.55;87.31;99297.41;10293589;28;97151;-82
2023/10/28 15:38:07;;;;;;;13.07;5.03;;;14.30;98.50;;;12.43;89.25;99294.53;10297155;28;96643;-82
2023/10/28 15:43:11;;;;;;;22.53;5.73;;;14.20;98.80;;;12.26;91.21;99295.91;10333116;28;96518;-82
2023/10/28 15:48:15;;;;;;;3.70;1.60;;;14.00;99.10;;;12.10;93.35;99312.22;10317411;28;96651;-82
2023/10/28 15:53:21;;;;;;;5.43;2.43;;;13.80;99.40;;;11.89;94.96;99321.16;10359836;28;96915;-82
2023/10/28 15:58:24;;;;;;;10.33;4.40;;;13.60;99.60;;;11.68;96.41;99317.53;10294367;28;96790;-82
2023/10/28 16:03:32;;;;;;;7.50;3.23;;;13.40;99.90;;;11.44;97.14;99328.66;10293214;28;97708;-81
2023/10/28 16:08:36;;;;;;;7.17;4.23;;;13.10;99.90;;;11.16;97.86;99324.16;10322034;28;97418;-82
2023/10/28 16:13:43;;;;;;;9.23;3.90;;;12.90;99.90;;;10.94;97.74;99338.50;10315844;28;96521;-81
2023/10/28 16:18:47;;;;;;;5.20;2.80;;;12.70;99.90;;;10.80;95.88;99348.19;10339842;28;98898;-82
2023/10/28 16:23:50;;;;;;;8.33;4.07;;;12.50;99.90;;;10.76;95.20;99340.78;10298039;28;96600;-82
2023/10/28 16:28:54;;;;;;;6.20;2.90;;;12.50;99.90;;;10.74;95.13;99346.28;10294382;28;98185;-82
2023/10/28 16:33:58;;;;;;;7.03;2.90;;;12.50;99.90;;;10.72;96.91;99341.16;10291986;28;96859;-82
2023/10/28 16:39:03;;;;;;;4.70;2.57;;;12.40;99.90;;;10.71;98.88;99344.00;10313480;28;98589;-82
2023/10/28 16:44:09;;;;;;;20.17;8.37;;;12.40;99.90;;;10.63;100.00;99365.38;10310331;28;96684;-82
2023/10/28 16:49:13;;;;;;;14.73;6.00;;;12.30;99.90;;;10.50;100.00;99375.88;10312646;28;98942;-82
2023/10/28 16:54:17;;;;;;;10.67;4.63;;;12.20;99.90;;;10.35;100.00;99390.00;10314543;28;97986;-81
2023/10/28 16:59:21;;;;;;;9.40;4.70;;;12.10;99.90;;;10.20;100.00;99389.19;10295863;28;97776;-82
2023/10/28 17:04:24;;;;;;;8.20;3.97;;;11.90;99.90;;;10.06;100.00;99390.00;10305877;28;96626;-82
2023/10/28 17:09:29;;;;;;;8.37;3.60;;;11.80;99.90;;;9.91;100.00;99374.91;10318138;28;97940;-82
2023/10/28 17:14:36;;;;;;;6.53;3.23;;;11.60;99.90;;;9.78;100.00;99371.25;10312037;28;96658;-82
2023/10/28 17:19:43;;;;;;;6.57;3.00;;;11.50;99.90;;;9.64;100.00;99381.66;10346995;28;96960;-81
2023/10/28 17:24:47;;;;;;;18.07;6.67;;;11.30;99.90;;;9.57;100.00;99379.91;10334633;28;98816;-82
2023/10/28 17:29:53;;;;;;;27.30;10.97;;;11.30;99.90;;;9.52;100.00;99393.72;10308747;28;96938;-82
2023/10/28 17:34:59;;;;;;;18.27;7.87;;;11.20;99.90;;;9.52;100.00;99382.28;10336329;28;96863;-81
2023/10/28 17:40:04;;;;;;;12.80;5.97;;;11.20;99.90;;;9.56;100.00;99380.94;10305039;28;96840;-82
2023/10/28 17:45:12;;;;;;;17.77;9.13;;;11.30;99.90;;;9.52;100.00;99387.59;10353180;28;96533;-82
2023/10/28 17:50:15;;;;;;;14.53;6.57;;;11.20;99.90;;;9.43;100.00;99412.56;10326245;28;96716;-82
2023/10/28 17:55:22;;;;;;;11.53;6.63;;;11.20;99.90;;;9.31;100.00;99409.50;10330924;28;97419;-82
2023/10/28 18:00:27;;;;;;;11.37;5.20;;;11.10;99.90;;;9.15;100.00;99430.84;10331283;28;96815;-82
2023/10/28 18:05:31;;;;;;;5.17;2.87;;;10.90;99.90;;;9.02;100.00;99442.03;10313339;28;96553;-82
2023/10/28 18:10:37;;;;;;;7.60;3.23;;;10.70;99.90;;;8.94;100.00;99450.88;10337654;28;96727;-82
2023/10/28 18:15:41;;;;;;;6.40;3.07;;;10.70;99.90;;;8.90;100.00;99443.44;10329094;28;96619;-82
2023/10/28 18:20:45;;;;;;;8.73;3.90;;;10.60;99.90;;;8.82;100.00;99461.03;10336922;28;96632;-82
2023/10/28 18:25:49;;;;;;;11.30;4.07;;;10.50;99.90;;;8.72;100.00;99465.72;10336410;28;96734;-82
2023/10/28 18:31:00;;;;;;;9.53;4.30;;;10.50;99.90;;;8.60;100.00;99464.47;10320997;28;96594;-82
2023/10/28 18:36:06;;;;;;;7.27;3.83;;;10.40;99.90;;;8.52;100.00;99480.41;10307981;28;96750;-82
2023/10/28 18:41:11;;;;;;;15.40;5.83;;;10.30;99.90;;;8.45;100.00;99490.81;10338453;28;96607;-82
2023/10/28 18:46:15;;;;;;;21.17;8.10;;;10.20;99.90;;;8.38;100.00;99502.28;10307215;28;96639;-81
2023/10/28 18:51:19;;;;;;;34.00;8.97;;;10.20;99.90;;;8.28;100.00;99508.56;10355703;27;97599;-82
2023/10/28 18:56:25;;;;;;;17.63;8.40;;;10.00;99.90;;;8.25;100.00;99500.97;10328615;28;98351;-83
2023/10/28 19:01:29;;;;;;;14.80;6.37;;;10.00;99.90;;;8.20;100.00;99518.34;10352643;28;96734;-81
2023/10/28 19:06:32;;;;;;;15.00;6.20;;;10.00;99.90;;;8.16;100.00;99519.69;10317344;28;96526;-81
2023/10/28 19:11:35;;;;;;;14.93;6.83;;;9.90;99.90;;;8.09;100.00;99537.22;10331649;28;96682;-81
2023/10/28 19:16:39;;;;;;;11.63;5.33;;;9.90;99.90;;;8.02;100.00;99534.41;10298306;28;98149;-81
2023/10/28 19:21:44;;;;;;;20.70;6.30;;;9.80;99.90;;;7.95;100.00;99536.09;10363691;28;96666;-81
2023/10/28 19:26:49;;;;;;;13.90;6.20;;;9.70;99.90;;;7.95;100.00;99554.59;10303312;28;98741;-81
2023/10/28 19:31:53;;;;;;;13.37;6.43;;;9.70;99.90;;;7.91;100.00;99545.34;10300364;28;98121;-82
2023/10/28 19:36:56;;;;;;;19.47;8.27;;;9.70;99.90;;;7.89;100.00;99549.97;10329170;28;96727;-82
2023/10/28 19:42:00;;;;;;;29.20;11.37;;;9.70;99.90;;;7.86;100.00;99547.69;10314707;28;97350;-81
2023/10/28 19:47:04;;;;;;;28.70;12.10;;;9.60;99.90;;;7.87;100.00;99551.97;10302499;28;97830;-82
2023/10/28 19:52:08;;;;;;;15.20;6.80;;;9.60;99.90;;;7.81;100.00;99557.94;10358018;27;97486;-82
2023/10/28 19:57:12;;;;;;;23.40;9.40;;;9.60;99.90;;;7.74;100.00;99558.59;10318067;28;96647;-83
2023/10/28 20:02:19;;;;;;;18.63;8.77;;;9.50;99.90;;;7.67;100.00;99547.00;10296444;28;98883;-82
2023/10/28 20:07:23;;;;;;;18.03;7.90;;;9.40;99.90;;;7.63;100.00;99537.75;10298092;28;96715;-82
2023/10/28 20:12:30;;;;;;;21.20;9.87;;;9.40;99.90;;;7.58;100.00;99534.78;10323904;28;96564;-82
2023/10/28 20:17:37;;;;;;;23.90;10.87;;;9.40;99.90;;;7.51;100.00;99568.97;10326309;28;97407;-82
2023/10/28 20:22:41;;;;;;;11.03;5.43;;;9.30;99.90;;;7.42;100.00;99566.47;10327025;28;98870;-83
2023/10/28 20:27:46;;;;;;;7.77;3.70;;;9.20;99.90;;;7.42;100.00;99575.22;10313280;28;98401;-82
2023/10/28 20:33:15;;;;;;;18.93;4.93;;;9.20;99.90;;;7.44;100.00;99564.53;10298830;28;98630;-82
2023/10/28 20:38:20;;;;;;;45.97;10.63;;;9.20;99.90;;;7.47;100.00;99567.66;10321595;28;96573;-82
2023/10/28 20:44:52;;;;;;;21.03;4.17;;;9.20;99.90;;;7.51;100.00;99578.72;10317947;28;96692;-82
2023/10/28 20:52:13;;;;;;;18.47;3.77;;;9.20;99.90;;;7.49;100.00;99575.41;10225561;28;97339;-82
2023/10/28 20:57:21;;;;;;;;;;;9.30;99.90;;;7.48;100.00;99556.06;10166908;28;96798;-82
2023/10/28 21:02:24;;;;;;;7.03;3.00;;;9.20;99.90;;;7.41;100.00;99567.47;10199506;28;96869;-82
2023/10/28 21:07:28;;;;;;;6.13;3.43;;;9.20;99.90;;;7.36;100.00;99575.88;10201931;28;97323;-82